createdAt,value
2022-10-31T00:00:41.214Z,12.2
2022-10-31T00:01:45.419Z,12.3
2022-10-31T00:02:49.986Z,12.1
2022-10-31T00:03:54.414Z,11.9
2022-10-31T00:04:58.876Z,12
2022-10-31T00:06:03.178Z,12
2022-10-31T00:07:07.636Z,12
2022-10-31T00:08:11.902Z,12
2022-10-31T00:09:16.356Z,12
2022-10-31T00:10:20.806Z,11.8
2022-10-31T00:11:24.930Z,11.8
2022-10-31T00:12:29.054Z,11.8
2022-10-31T00:13:33.146Z,12
2022-10-31T00:14:37.282Z,11.8
2022-10-31T00:15:41.791Z,11.8
2022-10-31T00:16:45.911Z,11.9
2022-10-31T00:17:49.987Z,11.9
2022-10-31T00:18:54.056Z,11.8
2022-10-31T00:19:58.190Z,11.8
2022-10-31T00:21:02.811Z,11.8
2022-10-31T00:22:06.847Z,11.8
2022-10-31T00:23:11.374Z,11.8
2022-10-31T00:24:15.474Z,11.9
2022-10-31T00:25:19.966Z,11.9
2022-10-31T00:26:24.212Z,11.8
2022-10-31T00:27:28.687Z,11.9
2022-10-31T00:28:32.806Z,11.8
2022-10-31T00:29:36.950Z,11.9
2022-10-31T00:30:41.422Z,11.9
2022-10-31T00:31:45.463Z,12
2022-10-31T00:32:49.758Z,11.8
2022-10-31T00:33:54.232Z,11.7
2022-10-31T00:34:58.306Z,11.7
2022-10-31T00:36:02.379Z,11.7
2022-10-31T00:37:07.070Z,11.8
2022-10-31T00:38:11.577Z,11.8
2022-10-31T00:39:15.674Z,11.9
2022-10-31T00:40:19.738Z,11.9
2022-10-31T00:41:23.781Z,11.7
2022-10-31T00:42:27.861Z,11.7
2022-10-31T00:43:31.996Z,11.8
2022-10-31T00:44:36.607Z,11.7
2022-10-31T00:45:41.050Z,11.8
2022-10-31T00:46:45.229Z,11.6
2022-10-31T00:47:49.747Z,11.8
2022-10-31T00:48:53.898Z,11.8
2022-10-31T00:49:58.102Z,11.7
2022-10-31T00:51:02.488Z,11.6
2022-10-31T00:52:06.707Z,11.6
2022-10-31T00:53:10.785Z,11.6
2022-10-31T00:54:15.365Z,11.5
2022-10-31T00:55:20.013Z,11.6
2022-10-31T00:56:24.523Z,11.6
2022-10-31T00:57:29.086Z,11.6
2022-10-31T00:58:33.683Z,11.5
2022-10-31T00:59:38.394Z,11.6
2022-10-31T01:00:44.489Z,11.7
2022-10-31T01:01:47.410Z,11.8
2022-10-31T01:02:51.530Z,11.6
2022-10-31T01:03:56.022Z,11.5
2022-10-31T01:05:00.218Z,11.5
2022-10-31T01:06:04.886Z,11.4
2022-10-31T01:07:08.805Z,11.5
2022-10-31T01:08:12.858Z,11.4
2022-10-31T01:09:17.398Z,11.4
2022-10-31T01:10:21.561Z,11.5
2022-10-31T01:11:26.067Z,11.3
2022-10-31T01:12:30.058Z,11.3
2022-10-31T01:13:42.278Z,11.2
2022-10-31T01:14:46.481Z,11.1
2022-10-31T01:15:51.034Z,11.3
2022-10-31T01:16:55.533Z,11.3
2022-10-31T01:17:59.846Z,11.3
2022-10-31T01:19:04.224Z,11.3
2022-10-31T01:20:08.743Z,11.2
2022-10-31T01:21:13.027Z,11.1
2022-10-31T01:22:19.966Z,11.2
2022-10-31T01:23:24.215Z,11.1
2022-10-31T01:24:28.622Z,11.2
2022-10-31T01:25:32.666Z,11.1
2022-10-31T01:26:36.793Z,11.1
2022-10-31T01:27:41.442Z,11
2022-10-31T01:28:46.058Z,11.1
2022-10-31T01:29:50.371Z,11.1
2022-10-31T01:30:54.698Z,11
2022-10-31T01:32:01.678Z,11.2
2022-10-31T01:33:05.796Z,11
2022-10-31T01:34:10.310Z,11
2022-10-31T01:35:14.458Z,10.9
2022-10-31T01:36:18.545Z,10.9
2022-10-31T01:37:28.106Z,10.9
2022-10-31T01:38:32.192Z,11
2022-10-31T01:39:36.365Z,11
2022-10-31T01:40:40.833Z,10.9
2022-10-31T01:41:44.943Z,11
2022-10-31T01:42:49.478Z,11.1
2022-10-31T01:43:53.475Z,11
2022-10-31T01:44:57.641Z,11.1
2022-10-31T01:46:01.695Z,11.1
2022-10-31T01:47:05.843Z,11
2022-10-31T01:48:12.989Z,11.1
2022-10-31T01:49:16.990Z,11.1
2022-10-31T01:50:26.702Z,11.1
2022-10-31T01:51:33.758Z,11
2022-10-31T01:52:37.775Z,11
2022-10-31T01:53:44.877Z,11.2
2022-10-31T01:54:49.001Z,11
2022-10-31T01:55:52.979Z,10.9
2022-10-31T01:56:57.301Z,11
2022-10-31T01:58:01.771Z,11
2022-10-31T01:59:08.282Z,11.1
2022-10-31T02:00:12.499Z,11.1
2022-10-31T02:01:17.154Z,10.9
2022-10-31T02:02:21.175Z,10.8
2022-10-31T02:03:25.127Z,10.9
2022-10-31T02:04:29.274Z,10.9
2022-10-31T02:05:33.298Z,10.9
2022-10-31T02:06:37.362Z,10.9
2022-10-31T02:07:49.601Z,11
2022-10-31T02:08:53.749Z,10.8
2022-10-31T02:09:58.342Z,10.8
2022-10-31T02:11:02.871Z,10.8
2022-10-31T02:12:06.998Z,10.8
2022-10-31T02:13:11.517Z,10.8
2022-10-31T02:14:15.662Z,10.7
2022-10-31T02:15:19.573Z,10.7
2022-10-31T02:16:24.210Z,10.7
2022-10-31T02:17:28.312Z,10.7
2022-10-31T02:18:32.442Z,10.8
2022-10-31T02:19:36.965Z,10.7
2022-10-31T02:20:51.674Z,10.8
2022-10-31T02:22:06.542Z,10.7
2022-10-31T02:23:13.633Z,10.8
2022-10-31T02:24:25.817Z,10.7
2022-10-31T02:25:40.517Z,10.9
2022-10-31T02:26:47.762Z,10.7
2022-10-31T02:28:02.915Z,10.7
2022-10-31T02:29:16.754Z,10.7
2022-10-31T02:30:28.885Z,10.7
2022-10-31T02:31:37.984Z,10.7
2022-10-31T02:32:52.805Z,10.6
2022-10-31T02:34:02.565Z,10.7
2022-10-31T02:35:12.310Z,10.6
2022-10-31T02:36:26.814Z,10.7
2022-10-31T02:37:36.090Z,10.7
2022-10-31T02:38:48.290Z,10.6
2022-10-31T02:40:00.518Z,10.6
2022-10-31T02:41:09.690Z,10.8
2022-10-31T02:42:16.841Z,10.8
2022-10-31T02:43:21.458Z,10.8
2022-10-31T02:44:28.473Z,10.8
2022-10-31T02:45:43.226Z,10.7
2022-10-31T02:46:52.860Z,10.7
2022-10-31T02:48:03.149Z,10.8
2022-10-31T02:49:10.167Z,10.9
2022-10-31T02:50:19.506Z,10.8
2022-10-31T02:51:23.885Z,10.8
2022-10-31T02:52:28.009Z,10.8
2022-10-31T02:53:32.030Z,10.7
2022-10-31T02:54:36.150Z,10.6
2022-10-31T02:55:40.593Z,10.7
2022-10-31T02:56:55.037Z,10.7
2022-10-31T02:57:59.498Z,10.6
2022-10-31T02:59:06.329Z,10.6
2022-10-31T03:00:10.962Z,10.8
2022-10-31T03:01:15.649Z,10.8
2022-10-31T03:02:30.232Z,10.7
2022-10-31T03:03:42.266Z,10.7
2022-10-31T03:04:49.430Z,10.6
2022-10-31T03:06:01.611Z,10.7
2022-10-31T03:07:11.268Z,10.9
2022-10-31T03:08:20.843Z,10.7
2022-10-31T03:09:25.107Z,10.7
2022-10-31T03:10:35.214Z,10.7
2022-10-31T03:11:42.353Z,10.7
2022-10-31T03:12:48.587Z,10.7
2022-10-31T03:13:50.821Z,10.7
2022-10-31T03:15:03.095Z,10.8
2022-10-31T03:16:12.730Z,10.8
2022-10-31T03:17:21.990Z,10.8
2022-10-31T03:18:32.110Z,10.7
2022-10-31T03:19:36.305Z,10.7
2022-10-31T03:20:40.953Z,10.7
2022-10-31T03:21:47.978Z,10.8
2022-10-31T03:23:02.634Z,10.7
2022-10-31T03:24:06.751Z,10.7
2022-10-31T03:25:10.937Z,10.7
2022-10-31T03:26:15.472Z,10.5
2022-10-31T03:27:20.078Z,10.6
2022-10-31T03:28:24.534Z,10.6
2022-10-31T03:29:28.662Z,10.6
2022-10-31T03:30:32.683Z,10.7
2022-10-31T03:31:36.791Z,10.7
2022-10-31T03:32:46.920Z,10.7
2022-10-31T03:33:50.957Z,10.6
2022-10-31T03:34:55.134Z,10.6
2022-10-31T03:35:59.249Z,10.7
2022-10-31T03:37:03.746Z,10.8
2022-10-31T03:38:08.125Z,10.7
2022-10-31T03:39:11.865Z,10.8
2022-10-31T03:40:16.042Z,10.7
2022-10-31T03:41:20.501Z,10.6
2022-10-31T03:42:24.674Z,10.7
2022-10-31T03:43:29.203Z,10.5
2022-10-31T03:44:33.274Z,10.6
2022-10-31T03:45:37.454Z,10.5
2022-10-31T03:46:41.977Z,10.5
2022-10-31T03:47:46.118Z,10.6
2022-10-31T03:48:50.586Z,10.6
2022-10-31T03:49:54.657Z,10.5
2022-10-31T03:50:58.962Z,10.8
2022-10-31T03:52:11.450Z,10.6
2022-10-31T03:53:23.756Z,10.6
2022-10-31T03:54:28.281Z,10.5
2022-10-31T03:55:35.561Z,10.5
2022-10-31T03:56:47.614Z,10.4
2022-10-31T03:57:51.702Z,10.5
2022-10-31T03:58:55.826Z,10.5
2022-10-31T04:00:05.423Z,10.4
2022-10-31T04:01:10.107Z,10.4
2022-10-31T04:02:14.192Z,10.5
2022-10-31T04:03:18.181Z,10.6
2022-10-31T04:04:27.829Z,10.5
2022-10-31T04:05:31.941Z,10.4
2022-10-31T04:06:36.005Z,10.5
2022-10-31T04:07:40.065Z,10.4
2022-10-31T04:08:44.271Z,10.4
2022-10-31T04:09:54.002Z,10.6
2022-10-31T04:10:58.410Z,10.7
2022-10-31T04:12:02.496Z,10.7
2022-10-31T04:13:07.206Z,10.6
2022-10-31T04:14:11.702Z,10.6
2022-10-31T04:15:16.273Z,10.7
2022-10-31T04:16:20.718Z,10.6
2022-10-31T04:17:24.889Z,10.5
2022-10-31T04:18:29.467Z,10.4
2022-10-31T04:19:33.961Z,10.3
2022-10-31T04:20:38.082Z,10.4
2022-10-31T04:21:42.646Z,10.3
2022-10-31T04:22:46.661Z,10.4
2022-10-31T04:23:50.813Z,10.5
2022-10-31T04:24:55.310Z,10.4
2022-10-31T04:25:59.374Z,10.4
2022-10-31T04:27:03.529Z,10.4
2022-10-31T04:28:08.224Z,10.6
2022-10-31T04:29:12.693Z,10.6
2022-10-31T04:30:17.273Z,10.5
2022-10-31T04:31:21.869Z,10.5
2022-10-31T04:32:26.391Z,10.5
2022-10-31T04:33:31.326Z,10.3
2022-10-31T04:34:35.577Z,10.4
2022-10-31T04:35:40.129Z,10.4
2022-10-31T04:36:44.135Z,10.4
2022-10-31T04:37:48.262Z,10.4
2022-10-31T04:38:52.353Z,10.4
2022-10-31T04:39:56.961Z,10.4
2022-10-31T04:41:01.457Z,10.4
2022-10-31T04:42:06.101Z,10.4
2022-10-31T04:43:10.730Z,10.3
2022-10-31T04:44:14.659Z,10.3
2022-10-31T04:45:20.264Z,10.4
2022-10-31T04:46:23.330Z,10.5
2022-10-31T04:47:27.805Z,10.5
2022-10-31T04:48:31.909Z,10.4
2022-10-31T04:49:36.021Z,10.3
2022-10-31T04:50:40.626Z,10.4
2022-10-31T04:51:44.654Z,10.5
2022-10-31T04:52:49.383Z,10.5
2022-10-31T04:53:53.797Z,10.4
2022-10-31T04:54:57.919Z,10.4
2022-10-31T04:56:02.052Z,10.2
2022-10-31T04:57:06.653Z,10.4
2022-10-31T04:58:10.756Z,10.4
2022-10-31T04:59:15.369Z,10.2
2022-10-31T05:00:19.805Z,10.2
2022-10-31T05:01:24.014Z,10.3
2022-10-31T05:02:27.943Z,10.2
2022-10-31T05:03:32.029Z,10.2
2022-10-31T05:04:36.101Z,10
2022-10-31T05:05:40.111Z,10.1
2022-10-31T05:06:44.210Z,10.2
2022-10-31T05:07:48.374Z,10.3
2022-10-31T05:08:52.852Z,10.2
2022-10-31T05:09:56.986Z,10.2
2022-10-31T05:11:03.198Z,10.3
2022-10-31T05:12:05.632Z,10.4
2022-10-31T05:13:09.796Z,10.5
2022-10-31T05:14:14.421Z,10.5
2022-10-31T05:15:18.953Z,10.2
2022-10-31T05:16:23.369Z,10.3
2022-10-31T05:17:27.566Z,10.2
2022-10-31T05:18:32.121Z,10.3
2022-10-31T05:19:36.125Z,10.1
2022-10-31T05:20:40.201Z,10.1
2022-10-31T05:21:44.253Z,10.2
2022-10-31T05:22:48.413Z,10.2
2022-10-31T05:23:52.569Z,10.3
2022-10-31T05:24:57.126Z,10.3
2022-10-31T05:26:01.690Z,10.3
2022-10-31T05:27:06.197Z,10.2
2022-10-31T05:28:10.263Z,10.2
2022-10-31T05:29:14.357Z,10.1
2022-10-31T05:30:18.486Z,10.2
2022-10-31T05:31:22.573Z,10.2
2022-10-31T05:32:26.549Z,10.1
2022-10-31T05:33:30.637Z,10.2
2022-10-31T05:34:34.824Z,10.3
2022-10-31T05:35:38.787Z,10.2
2022-10-31T05:36:42.876Z,10.1
2022-10-31T05:37:46.992Z,10.1
2022-10-31T05:38:51.153Z,10.1
2022-10-31T05:39:55.697Z,10
2022-10-31T05:41:00.176Z,10.2
2022-10-31T05:42:04.327Z,10.2
2022-10-31T05:43:08.357Z,10.2
2022-10-31T05:44:12.549Z,10.2
2022-10-31T05:45:16.663Z,10.3
2022-10-31T05:46:21.178Z,10.2
2022-10-31T05:47:25.230Z,10.1
2022-10-31T05:48:29.697Z,10.1
2022-10-31T05:49:33.832Z,10.2
2022-10-31T05:50:37.868Z,10.2
2022-10-31T05:51:42.005Z,10.2
2022-10-31T05:52:46.113Z,10.3
2022-10-31T05:53:55.757Z,10.3
2022-10-31T05:55:00.418Z,10.2
2022-10-31T05:56:04.765Z,10.3
2022-10-31T05:57:08.913Z,10.3
2022-10-31T05:58:13.045Z,10.1
2022-10-31T05:59:17.105Z,10.1
2022-10-31T06:00:21.716Z,10.2
2022-10-31T06:01:26.181Z,10.2
2022-10-31T06:02:30.301Z,10.2
2022-10-31T06:03:34.391Z,10.2
2022-10-31T06:04:38.459Z,10.1
2022-10-31T06:05:42.870Z,10.3
2022-10-31T06:06:47.301Z,10.1
2022-10-31T06:07:51.745Z,10.2
2022-10-31T06:08:56.082Z,10.2
2022-10-31T06:10:00.320Z,10.2
2022-10-31T06:11:04.301Z,10.3
2022-10-31T06:12:08.575Z,10.3
2022-10-31T06:13:13.125Z,10.4
2022-10-31T06:14:17.208Z,10.5
2022-10-31T06:15:24.283Z,10.3
2022-10-31T06:16:25.384Z,10.3
2022-10-31T06:17:29.916Z,10.4
2022-10-31T06:18:34.070Z,10.3
2022-10-31T06:19:38.213Z,10.3
2022-10-31T06:20:42.291Z,10.3
2022-10-31T06:21:46.810Z,10.3
2022-10-31T06:22:50.796Z,10.3
2022-10-31T06:23:54.988Z,10.5
2022-10-31T06:24:59.444Z,10.4
2022-10-31T06:26:03.605Z,10.4
2022-10-31T06:27:07.718Z,10.4
2022-10-31T06:28:11.749Z,10.4
2022-10-31T06:29:15.897Z,10.4
2022-10-31T06:30:20.188Z,10.5
2022-10-31T06:31:24.728Z,10.4
2022-10-31T06:32:29.245Z,10.5
2022-10-31T06:33:33.860Z,10.4
2022-10-31T06:34:38.496Z,10.4
2022-10-31T06:35:43.108Z,10.5
2022-10-31T06:36:47.463Z,10.4
2022-10-31T06:37:52.069Z,10.4
2022-10-31T06:38:56.084Z,10.5
2022-10-31T06:40:00.135Z,10.6
2022-10-31T06:41:04.832Z,10.5
2022-10-31T06:42:08.893Z,10.6
2022-10-31T06:43:13.456Z,10.6
2022-10-31T06:44:17.553Z,10.6
2022-10-31T06:45:22.104Z,10.6
2022-10-31T06:46:26.675Z,10.8
2022-10-31T06:47:30.679Z,10.6
2022-10-31T06:48:34.757Z,10.7
2022-10-31T06:49:38.877Z,10.6
2022-10-31T06:50:43.495Z,10.6
2022-10-31T06:51:47.534Z,10.6
2022-10-31T06:52:52.308Z,10.7
2022-10-31T06:53:56.641Z,10.6
2022-10-31T06:55:00.728Z,10.7
2022-10-31T06:56:05.449Z,10.8
2022-10-31T06:57:09.919Z,10.7
2022-10-31T06:58:14.524Z,10.7
2022-10-31T06:59:18.692Z,10.9
2022-10-31T07:00:23.145Z,10.8
2022-10-31T07:01:27.438Z,10.9
2022-10-31T07:02:31.964Z,10.8
2022-10-31T07:03:36.524Z,10.8
2022-10-31T07:04:41.204Z,11
2022-10-31T07:05:45.704Z,10.8
2022-10-31T07:06:51.906Z,10.9
2022-10-31T07:07:54.457Z,10.9
2022-10-31T07:08:58.858Z,10.7
2022-10-31T07:10:03.288Z,10.7
2022-10-31T07:11:07.604Z,10.7
2022-10-31T07:12:11.702Z,10.7
2022-10-31T07:13:16.268Z,10.7
2022-10-31T07:14:20.256Z,10.8
2022-10-31T07:15:24.320Z,10.9
2022-10-31T07:16:28.817Z,10.9
2022-10-31T07:17:33.009Z,11
2022-10-31T07:18:37.168Z,11
2022-10-31T07:19:41.717Z,10.9
2022-10-31T07:20:46.356Z,10.9
2022-10-31T07:21:50.852Z,11
2022-10-31T07:22:54.872Z,10.9
2022-10-31T07:23:59.028Z,11
2022-10-31T07:25:03.608Z,11
2022-10-31T07:26:08.146Z,10.9
2022-10-31T07:27:12.264Z,10.9
2022-10-31T07:28:16.440Z,11.1
2022-10-31T07:29:20.990Z,11.2
2022-10-31T07:30:25.564Z,11.1
2022-10-31T07:31:30.176Z,11.2
2022-10-31T07:32:34.677Z,11.3
2022-10-31T07:33:41.876Z,11.3
2022-10-31T07:34:47.372Z,11.3
2022-10-31T07:35:51.400Z,11.4
2022-10-31T07:36:55.504Z,11.5
2022-10-31T07:37:59.951Z,11.4
2022-10-31T07:39:11.782Z,11.4
2022-10-31T07:40:15.896Z,11.4
2022-10-31T07:41:20.133Z,11.4
2022-10-31T07:42:24.504Z,11.5
2022-10-31T07:43:28.689Z,11.5
2022-10-31T07:44:33.137Z,11.4
2022-10-31T07:45:37.452Z,11.6
2022-10-31T07:46:41.924Z,11.7
2022-10-31T07:47:45.916Z,11.6
2022-10-31T07:48:49.952Z,11.8
2022-10-31T07:49:54.144Z,11.9
2022-10-31T07:50:58.309Z,11.7
2022-10-31T07:52:02.828Z,11.7
2022-10-31T07:53:07.114Z,11.6
2022-10-31T07:54:11.709Z,11.8
2022-10-31T07:55:16.849Z,11.8
2022-10-31T07:56:21.101Z,11.7
2022-10-31T07:57:25.624Z,11.9
2022-10-31T07:58:29.851Z,11.7
2022-10-31T07:59:34.336Z,11.6
2022-10-31T08:00:38.501Z,11.8
2022-10-31T08:01:43.457Z,12
2022-10-31T08:02:47.550Z,12
2022-10-31T08:04:00.008Z,12
2022-10-31T08:05:04.527Z,12
2022-10-31T08:06:08.932Z,11.9
2022-10-31T08:07:13.471Z,11.9
2022-10-31T08:08:17.773Z,12
2022-10-31T08:09:22.160Z,12
2022-10-31T08:10:26.256Z,12
2022-10-31T08:11:30.604Z,12.2
2022-10-31T08:12:34.977Z,12
2022-10-31T08:13:39.096Z,12.1
2022-10-31T08:14:43.537Z,12
2022-10-31T08:15:47.685Z,12.2
2022-10-31T08:16:52.412Z,12.2
2022-10-31T08:17:56.971Z,12.2
2022-10-31T08:19:00.896Z,12.3
2022-10-31T08:20:05.053Z,12.2
2022-10-31T08:21:09.577Z,12.4
2022-10-31T08:22:13.620Z,12.5
2022-10-31T08:23:17.849Z,12.7
2022-10-31T08:24:22.356Z,12.7
2022-10-31T08:25:26.856Z,12.5
2022-10-31T08:26:30.973Z,12.7
2022-10-31T08:27:34.988Z,12.8
2022-10-31T08:28:39.057Z,12.8
2022-10-31T08:29:43.180Z,12.7
2022-10-31T08:30:47.280Z,12.7
2022-10-31T08:31:51.353Z,12.7
2022-10-31T08:32:55.460Z,12.7
2022-10-31T08:34:03.109Z,12.6
2022-10-31T08:35:07.508Z,12.7
2022-10-31T08:36:11.692Z,12.8
2022-10-31T08:37:15.797Z,12.7
2022-10-31T08:38:20.488Z,13
2022-10-31T08:39:25.064Z,13
2022-10-31T08:40:29.471Z,13
2022-10-31T08:41:33.592Z,13.1
2022-10-31T08:42:37.648Z,12.9
2022-10-31T08:43:41.800Z,13.1
2022-10-31T08:44:46.504Z,13.1
2022-10-31T08:45:51.064Z,13.1
2022-10-31T08:46:55.616Z,13.2
2022-10-31T08:48:00.536Z,13.3
2022-10-31T08:49:04.801Z,13.2
2022-10-31T08:50:08.872Z,13.2
2022-10-31T08:51:13.449Z,13.3
2022-10-31T08:52:17.552Z,13.4
2022-10-31T08:53:22.069Z,13.5
2022-10-31T08:54:26.625Z,13.5
2022-10-31T08:55:31.318Z,13.4
2022-10-31T08:56:35.808Z,13.5
2022-10-31T08:57:40.312Z,13.6
2022-10-31T08:58:44.529Z,13.6
2022-10-31T08:59:49.141Z,13.6
2022-10-31T09:00:53.714Z,13.6
2022-10-31T09:02:01.014Z,13.7
2022-10-31T09:03:05.340Z,13.7
2022-10-31T09:04:15.106Z,13.8
2022-10-31T09:05:19.728Z,13.9
2022-10-31T09:06:24.303Z,13.9
2022-10-31T09:07:28.693Z,14
2022-10-31T09:08:32.960Z,14
2022-10-31T09:09:37.603Z,14.1
2022-10-31T09:10:42.092Z,14.1
2022-10-31T09:11:46.633Z,14.1
2022-10-31T09:12:50.672Z,14.1
2022-10-31T09:14:00.288Z,14.1
2022-10-31T09:15:04.372Z,14.2
2022-10-31T09:16:09.032Z,14.3
2022-10-31T09:17:13.077Z,14.4
2022-10-31T09:18:17.852Z,14.5
2022-10-31T09:19:22.291Z,14.6
2022-10-31T09:20:26.932Z,14.6
2022-10-31T09:21:31.847Z,14.7
2022-10-31T09:22:37.308Z,14.6
2022-10-31T09:23:42.225Z,14.7
2022-10-31T09:24:47.092Z,14.7
2022-10-31T09:25:51.527Z,14.9
2022-10-31T09:26:56.005Z,15.1
2022-10-31T09:28:00.695Z,15
2022-10-31T09:29:05.221Z,15.3
2022-10-31T09:30:09.580Z,15.4
2022-10-31T09:31:13.860Z,15.4
2022-10-31T09:32:18.544Z,15.4
2022-10-31T09:33:23.024Z,15.5
2022-10-31T09:34:27.648Z,15.5
2022-10-31T09:35:32.258Z,15.8
2022-10-31T09:36:36.843Z,15.9
2022-10-31T09:37:41.418Z,16
2022-10-31T09:38:46.235Z,16.1
2022-10-31T09:39:50.416Z,16.2
2022-10-31T09:40:54.654Z,16.2
2022-10-31T09:42:06.944Z,16.2
2022-10-31T09:43:16.487Z,16.3
2022-10-31T09:44:26.737Z,16.2
2022-10-31T09:45:41.430Z,16.2
2022-10-31T09:46:45.932Z,16.4
2022-10-31T09:48:01.044Z,16.6
2022-10-31T09:49:13.010Z,16.7
2022-10-31T09:50:27.639Z,16.8
2022-10-31T09:51:42.480Z,16.9
2022-10-31T09:52:46.550Z,16.9
2022-10-31T09:53:53.656Z,16.9
2022-10-31T09:55:08.485Z,17
2022-10-31T09:56:18.744Z,17.1
2022-10-31T09:57:23.157Z,17
2022-10-31T09:58:27.288Z,16.9
2022-10-31T09:59:31.392Z,16.9
2022-10-31T10:00:35.972Z,17
2022-10-31T10:01:40.169Z,17.1
2022-10-31T10:02:47.104Z,17.2
2022-10-31T10:03:51.734Z,17.1
2022-10-31T10:04:56.295Z,17.1
2022-10-31T10:06:06.605Z,17.1
2022-10-31T10:07:19.223Z,17.2
2022-10-31T10:08:32.191Z,17.3
2022-10-31T10:09:36.729Z,17.4
2022-10-31T10:10:41.039Z,17.5
2022-10-31T10:11:53.279Z,17.5
2022-10-31T10:13:03.657Z,17.6
2022-10-31T10:14:06.947Z,17.7
2022-10-31T10:15:21.690Z,17.8
2022-10-31T10:16:31.271Z,17.9
2022-10-31T10:17:37.889Z,17.9
2022-10-31T10:18:50.134Z,18
2022-10-31T10:20:04.863Z,17.9
2022-10-31T10:21:19.648Z,17.9
2022-10-31T10:22:29.307Z,17.9
2022-10-31T10:23:33.348Z,18
2022-10-31T10:24:45.589Z,18.2
2022-10-31T10:25:55.276Z,18.3
2022-10-31T10:26:59.500Z,18.3
2022-10-31T10:28:11.733Z,18.2
2022-10-31T10:29:18.756Z,18.4
2022-10-31T10:30:29.403Z,18.4
2022-10-31T10:31:33.504Z,18.4
2022-10-31T10:32:37.509Z,18.4
2022-10-31T10:33:46.696Z,18.6
2022-10-31T10:35:01.435Z,18.7
2022-10-31T10:36:15.895Z,18.8
2022-10-31T10:37:20.816Z,18.7
2022-10-31T10:38:27.959Z,18.7
2022-10-31T10:39:42.777Z,18.8
2022-10-31T10:40:47.301Z,18.9
2022-10-31T10:41:51.617Z,18.8
2022-10-31T10:43:01.053Z,18.8
2022-10-31T10:44:15.850Z,18.8
2022-10-31T10:45:20.415Z,18.8
2022-10-31T10:46:29.984Z,19
2022-10-31T10:47:42.248Z,19.1
2022-10-31T10:48:46.831Z,19.2
2022-10-31T10:49:56.495Z,19.2
2022-10-31T10:51:00.789Z,19.3
2022-10-31T10:52:39.568Z,19.2
2022-10-31T10:53:14.836Z,19.2
2022-10-31T10:54:27.255Z,19.2
2022-10-31T10:55:41.767Z,19.1
2022-10-31T10:56:51.591Z,19.2
2022-10-31T10:57:55.928Z,19.2
2022-10-31T10:59:00.147Z,19.2
2022-10-31T11:00:04.811Z,19.1
2022-10-31T11:02:18.501Z,19.3
2022-10-31T11:03:25.523Z,19.4
2022-10-31T11:04:29.584Z,19.3
2022-10-31T11:05:36.759Z,19.3
2022-10-31T11:06:40.787Z,19.5
2022-10-31T11:07:44.860Z,19.4
2022-10-31T11:08:49.135Z,19.5
2022-10-31T11:09:53.611Z,19.6
2022-10-31T11:10:57.811Z,19.7
2022-10-31T11:12:10.479Z,19.4
2022-10-31T11:13:17.575Z,19.5
2022-10-31T11:14:24.660Z,19.5
2022-10-31T11:15:29.499Z,19.5
2022-10-31T11:16:38.197Z,19.6
2022-10-31T11:17:37.829Z,19.6
2022-10-31T11:18:42.020Z,19.8
2022-10-31T11:19:46.587Z,19.7
2022-10-31T11:20:51.232Z,19.8
2022-10-31T11:21:55.849Z,19.6
2022-10-31T11:23:08.254Z,19.5
2022-10-31T11:24:20.723Z,19.6
2022-10-31T11:25:25.221Z,19.8
2022-10-31T11:26:29.327Z,19.9
2022-10-31T11:27:33.924Z,19.9
2022-10-31T11:28:38.127Z,19.8
2022-10-31T11:29:42.680Z,19.9
2022-10-31T11:30:47.208Z,20
2022-10-31T11:31:59.336Z,19.9
2022-10-31T11:33:03.621Z,19.8
2022-10-31T11:34:07.560Z,19.9
2022-10-31T11:35:14.687Z,20
2022-10-31T11:36:18.839Z,20
2022-10-31T11:37:22.923Z,19.9
2022-10-31T11:38:32.437Z,19.7
2022-10-31T11:39:36.519Z,19.5
2022-10-31T11:40:40.627Z,19.4
2022-10-31T11:41:44.771Z,19.3
2022-10-31T11:42:48.923Z,19.1
2022-10-31T11:43:53.479Z,18.9
2022-10-31T11:44:57.669Z,19.1
2022-10-31T11:46:01.747Z,19.4
2022-10-31T11:47:11.328Z,19.5
2022-10-31T11:48:15.928Z,19.7
2022-10-31T11:49:20.408Z,19.7
2022-10-31T11:50:29.719Z,19.8
2022-10-31T11:51:36.795Z,19.7
2022-10-31T11:52:41.032Z,19.3
2022-10-31T11:53:45.455Z,19.3
2022-10-31T11:54:52.647Z,19.5
2022-10-31T11:55:59.892Z,19.7
2022-10-31T11:57:07.431Z,19.8
2022-10-31T11:58:17.221Z,19.8
2022-10-31T11:59:21.591Z,19.9
2022-10-31T12:01:33.551Z,20.1
2022-10-31T12:02:37.576Z,20
2022-10-31T12:03:42.196Z,20.1
2022-10-31T12:04:46.745Z,20.2
2022-10-31T12:05:58.908Z,20.1
2022-10-31T12:07:13.695Z,20
2022-10-31T12:08:17.836Z,20.1
2022-10-31T12:09:22.599Z,20.1
2022-10-31T12:10:30.043Z,20.2
2022-10-31T12:11:40.114Z,20.2
2022-10-31T12:12:47.192Z,20.3
2022-10-31T12:13:59.832Z,20.3
2022-10-31T12:15:01.095Z,20.3
2022-10-31T12:16:13.231Z,20.3
2022-10-31T12:17:20.419Z,20.2
2022-10-31T12:18:27.536Z,20.3
2022-10-31T12:19:35.013Z,20.4
2022-10-31T12:20:47.403Z,20.4
2022-10-31T12:21:59.586Z,20.4
2022-10-31T12:23:06.688Z,20.4
2022-10-31T12:24:16.078Z,20.3
2022-10-31T12:25:25.530Z,20.2
2022-10-31T12:26:34.663Z,20.3
2022-10-31T12:27:43.876Z,20.3
2022-10-31T12:28:55.322Z,20.3
2022-10-31T12:30:00.285Z,20.4
2022-10-31T12:31:09.839Z,20.4
2022-10-31T12:32:24.232Z,20.4
2022-10-31T12:33:28.658Z,20.4
2022-10-31T12:34:37.859Z,20.3
2022-10-31T12:35:52.221Z,20.4
2022-10-31T12:37:01.908Z,20
2022-10-31T12:38:11.545Z,19.9
2022-10-31T12:39:26.271Z,20
2022-10-31T12:40:41.157Z,20
2022-10-31T12:41:51.248Z,20.2
2022-10-31T12:43:06.183Z,20.2
2022-10-31T12:44:20.666Z,20.3
2022-10-31T12:45:35.395Z,20.4
2022-10-31T12:46:49.854Z,20.4
2022-10-31T12:48:04.517Z,20.3
2022-10-31T12:49:11.643Z,20.3
2022-10-31T12:50:18.764Z,20.3
2022-10-31T12:51:28.407Z,20.2
2022-10-31T12:52:40.251Z,20.3
2022-10-31T12:53:49.868Z,20
2022-10-31T12:55:04.608Z,20.1
2022-10-31T12:56:19.376Z,20.2
2022-10-31T12:57:23.766Z,20.3
2022-10-31T12:58:38.269Z,20.2
2022-10-31T12:59:50.382Z,20.2
2022-10-31T13:00:59.741Z,20.3
2022-10-31T13:02:09.336Z,20.3
2022-10-31T13:03:18.530Z,20.3
2022-10-31T13:04:25.552Z,20.2
2022-10-31T13:05:38.327Z,20.1
2022-10-31T13:06:44.826Z,20.2
2022-10-31T13:07:52.574Z,20.2
2022-10-31T13:09:07.327Z,20.2
2022-10-31T13:10:19.656Z,20.1
2022-10-31T13:11:34.284Z,20.1
2022-10-31T13:12:47.107Z,20.1
2022-10-31T13:13:51.578Z,20.2
2022-10-31T13:15:06.374Z,20.1
2022-10-31T13:16:13.666Z,20.1
2022-10-31T13:17:18.246Z,20
2022-10-31T13:18:32.824Z,20
2022-10-31T13:19:45.050Z,20
2022-10-31T13:20:52.987Z,20
2022-10-31T13:21:53.264Z,20.1
2022-10-31T13:22:57.437Z,20.1
2022-10-31T13:24:07.492Z,20.1
2022-10-31T13:25:11.758Z,20.1
2022-10-31T13:26:21.451Z,20.1
2022-10-31T13:27:28.822Z,20
2022-10-31T13:28:38.140Z,20
2022-10-31T13:29:42.635Z,20.1
2022-10-31T13:30:54.960Z,20.1
2022-10-31T13:31:59.455Z,20.1
2022-10-31T13:33:06.535Z,19.9
2022-10-31T13:34:13.827Z,19.8
2022-10-31T13:35:28.395Z,19.9
2022-10-31T13:36:43.272Z,20
2022-10-31T13:37:50.953Z,20
2022-10-31T13:39:02.638Z,20
2022-10-31T13:40:17.482Z,20
2022-10-31T13:41:29.511Z,19.8
2022-10-31T13:42:39.178Z,19.8
2022-10-31T13:43:53.902Z,19.9
2022-10-31T13:45:00.520Z,19.8
2022-10-31T13:46:15.298Z,19.7
2022-10-31T13:47:27.574Z,19.5
2022-10-31T13:48:31.658Z,19.7
2022-10-31T13:49:35.694Z,19.7
2022-10-31T13:50:39.735Z,19.8
2022-10-31T13:51:43.945Z,19.7
2022-10-31T13:52:48.568Z,19.8
2022-10-31T13:53:53.054Z,19.8
2022-10-31T13:54:57.160Z,19.8
2022-10-31T13:56:01.315Z,19.7
2022-10-31T13:57:10.951Z,19.7
2022-10-31T13:58:20.595Z,19.7
2022-10-31T13:59:27.708Z,19.7
2022-10-31T14:00:31.830Z,19.7
2022-10-31T14:01:36.532Z,19.7
2022-10-31T14:02:40.430Z,19.7
2022-10-31T14:04:49.673Z,19.6
2022-10-31T14:05:56.626Z,19.6
2022-10-31T14:07:00.752Z,19.5
2022-10-31T14:08:11.094Z,19.5
2022-10-31T14:09:18.119Z,19.5
2022-10-31T14:10:22.362Z,19.5
2022-10-31T14:11:36.342Z,19.5
2022-10-31T14:12:39.477Z,19.5
2022-10-31T14:13:43.946Z,19.4
2022-10-31T14:14:48.078Z,19.4
2022-10-31T14:15:52.116Z,19.4
2022-10-31T14:17:01.807Z,19.4
2022-10-31T14:18:05.835Z,19.3
2022-10-31T14:19:10.127Z,19.3
2022-10-31T14:20:19.584Z,19.3
2022-10-31T14:21:31.785Z,19.2
2022-10-31T14:22:42.546Z,19.2
2022-10-31T14:23:43.066Z,19.2
2022-10-31T14:24:47.562Z,19.1
2022-10-31T14:25:51.762Z,19.1
2022-10-31T14:26:56.236Z,19.1
2022-10-31T14:28:00.697Z,19.1
2022-10-31T14:29:04.447Z,19.1
2022-10-31T14:30:16.693Z,19.1
2022-10-31T14:31:21.360Z,19.1
2022-10-31T14:32:30.886Z,19.1
2022-10-31T14:33:34.964Z,19
2022-10-31T14:34:39.086Z,19
2022-10-31T14:35:43.154Z,19
2022-10-31T14:36:55.411Z,19
2022-10-31T14:38:10.098Z,19
2022-10-31T14:39:17.453Z,18.9
2022-10-31T14:40:29.505Z,18.9
2022-10-31T14:41:39.199Z,18.8
2022-10-31T14:42:53.923Z,18.8
2022-10-31T14:44:08.699Z,18.8
2022-10-31T14:45:13.243Z,18.7
2022-10-31T14:46:22.909Z,18.7
2022-10-31T14:47:37.654Z,18.6
2022-10-31T14:48:47.376Z,18.5